createdAt,value
2022-11-16T00:01:03.104Z,71.80
2022-11-16T00:04:05.883Z,74.72
2022-11-16T00:07:09.538Z,74.37
2022-11-16T00:10:12.990Z,76.53
2022-11-16T00:13:15.815Z,76.28
2022-11-16T00:16:18.624Z,78.00
2022-11-16T00:19:22.082Z,79.53
2022-11-16T00:22:24.992Z,82.75
2022-11-16T00:25:27.892Z,86.85
2022-11-16T00:28:31.125Z,86.28
2022-11-16T00:31:34.146Z,84.20
2022-11-16T00:34:36.860Z,84.90
2022-11-16T00:37:39.614Z,88.07
2022-11-16T00:40:42.547Z,92.28
2022-11-16T00:43:45.434Z,82.70
2022-11-16T00:46:48.192Z,88.87
2022-11-16T00:49:50.963Z,89.57
2022-11-16T00:52:54.518Z,84.57
2022-11-16T00:55:57.364Z,83.57
2022-11-16T00:59:00.254Z,84.75
2022-11-16T01:02:03.096Z,86.18
2022-11-16T01:05:06.977Z,86.47
2022-11-16T01:08:09.808Z,85.55
2022-11-16T01:11:33.519Z,79.53
2022-11-16T01:14:38.470Z,82.35
2022-11-16T01:17:42.397Z,84.35
2022-11-16T01:20:45.246Z,81.40
2022-11-16T01:23:48.246Z,84.32
2022-11-16T01:26:51.226Z,85.65
2022-11-16T01:29:54.206Z,85.97
2022-11-16T01:32:57.086Z,83.75
2022-11-16T01:36:00.046Z,80.15
2022-11-16T01:39:04.802Z,83.75
2022-11-16T01:42:18.817Z,81.20
2022-11-16T01:45:34.233Z,85.40
2022-11-16T01:48:38.307Z,75.57
2022-11-16T01:51:51.552Z,85.90
2022-11-16T01:54:55.556Z,82.72
2022-11-16T01:58:01.823Z,83.22
2022-11-16T02:01:05.898Z,77.70
2022-11-16T02:04:13.439Z,80.45
2022-11-16T02:07:30.743Z,75.12
2022-11-16T02:10:42.633Z,71.55
2022-11-16T02:13:49.057Z,71.68
2022-11-16T02:17:12.990Z,75.97
2022-11-16T02:20:42.399Z,70.97
2022-11-16T02:24:13.501Z,63.55
2022-11-16T02:27:37.810Z,65.65
2022-11-16T02:30:46.934Z,69.07
2022-11-16T02:33:52.015Z,67.82
2022-11-16T02:36:57.458Z,62.50
2022-11-16T02:40:05.524Z,68.70
2022-11-16T02:43:12.223Z,63.75
2022-11-16T02:46:29.318Z,60.70
2022-11-16T02:49:36.828Z,62.72
2022-11-16T02:52:39.365Z,62.50
2022-11-16T02:55:45.848Z,56.20
2022-11-16T02:58:48.449Z,59.10
2022-11-16T03:02:02.227Z,58.40
2022-11-16T03:05:32.217Z,56.53
2022-11-16T03:08:39.943Z,53.83
2022-11-16T03:12:00.375Z,59.03
2022-11-16T03:15:07.431Z,79.25
2022-11-16T03:18:14.291Z,56.58
2022-11-16T03:21:37.726Z,55.83
2022-11-16T03:24:41.650Z,51.50
2022-11-16T03:28:02.552Z,56.70
2022-11-16T03:31:15.186Z,50.08
2022-11-16T03:34:21.712Z,50.35
2022-11-16T03:37:25.451Z,53.97
2022-11-16T03:40:31.607Z,52.95
2022-11-16T03:43:36.203Z,52.00
2022-11-16T03:46:44.451Z,102.68
2022-11-16T03:49:48.133Z,65.20
2022-11-16T03:52:52.163Z,55.67
2022-11-16T03:55:54.711Z,55.00
2022-11-16T03:58:57.985Z,53.05
2022-11-16T04:02:00.483Z,56.65
2022-11-16T04:05:22.859Z,51.92
2022-11-16T04:08:44.211Z,53.80
2022-11-16T04:12:07.520Z,48.25
2022-11-16T04:15:41.454Z,48.92
2022-11-16T04:19:03.471Z,48.28
2022-11-16T04:22:37.056Z,54.10
2022-11-16T04:25:42.308Z,51.60
2022-11-16T04:28:48.013Z,48.22
2022-11-16T04:35:31.748Z,54.03
2022-11-16T04:38:35.043Z,53.35
2022-11-16T04:41:56.820Z,56.88
2022-11-16T04:45:19.436Z,63.60
2022-11-16T04:48:22.547Z,60.30
2022-11-16T04:51:26.501Z,58.97
2022-11-16T04:54:29.319Z,71.70
2022-11-16T04:57:32.874Z,66.55
2022-11-16T05:00:35.513Z,64.20
2022-11-16T05:03:41.134Z,63.25
2022-11-16T05:06:43.684Z,67.00
2022-11-16T05:09:48.898Z,68.03
2022-11-16T05:12:51.619Z,65.47
2022-11-16T05:19:17.166Z,72.40
2022-11-16T05:22:20.447Z,74.82
2022-11-16T05:25:24.227Z,77.40
2022-11-16T05:28:28.254Z,77.00
2022-11-16T05:31:34.006Z,74.95
2022-11-16T05:34:40.931Z,76.75
2022-11-16T05:40:47.091Z,84.37
2022-11-16T05:43:49.525Z,79.47
2022-11-16T05:46:53.460Z,83.93
2022-11-16T05:49:56.126Z,75.82
2022-11-16T05:53:00.319Z,79.07
2022-11-16T05:56:03.085Z,79.25
2022-11-16T05:59:11.193Z,79.60
2022-11-16T06:02:18.531Z,81.68
2022-11-16T06:05:21.774Z,79.78
2022-11-16T06:08:25.058Z,77.25
2022-11-16T06:11:32.821Z,78.20
2022-11-16T06:14:38.527Z,77.70
2022-11-16T06:17:41.783Z,84.20
2022-11-16T06:20:45.021Z,80.15
2022-11-16T06:26:50.884Z,75.43
2022-11-16T06:29:54.093Z,83.22
2022-11-16T06:32:57.160Z,88.97
2022-11-16T06:36:01.411Z,81.90
2022-11-16T06:39:04.046Z,82.43
2022-11-16T06:42:08.748Z,80.93
2022-11-16T06:45:12.127Z,91.37
2022-11-16T06:48:15.359Z,84.72
2022-11-16T06:51:18.481Z,81.28
2022-11-16T06:54:22.968Z,87.07
2022-11-16T06:57:30.564Z,84.62
2022-11-16T07:00:33.930Z,82.78
2022-11-16T07:03:36.808Z,88.45
2022-11-16T07:06:41.061Z,87.12
2022-11-16T07:09:45.095Z,86.35
2022-11-16T07:12:49.551Z,89.32
2022-11-16T07:15:52.601Z,87.72
2022-11-16T07:18:57.875Z,91.82
2022-11-16T07:22:00.808Z,80.87
2022-11-16T07:25:04.627Z,85.90
2022-11-16T07:28:07.094Z,86.22
2022-11-16T07:31:15.687Z,90.18
2022-11-16T07:34:18.590Z,84.55
2022-11-16T07:40:24.508Z,86.63
2022-11-16T07:43:31.702Z,92.65
2022-11-16T07:46:46.701Z,89.07
2022-11-16T07:49:50.721Z,89.82
2022-11-16T07:52:55.655Z,91.70
2022-11-16T07:55:58.869Z,91.22
2022-11-16T07:59:02.416Z,87.18
2022-11-16T08:02:06.168Z,84.32
2022-11-16T08:05:09.219Z,94.37
2022-11-16T08:08:13.801Z,99.53
2022-11-16T08:11:17.008Z,96.68
2022-11-16T08:14:20.464Z,92.22
2022-11-16T08:17:23.727Z,93.45
2022-11-16T08:20:28.839Z,91.85
2022-11-16T08:23:32.469Z,88.57
2022-11-16T08:29:38.940Z,95.87
2022-11-16T08:35:45.941Z,88.40
2022-11-16T08:38:50.061Z,88.60
2022-11-16T08:41:54.132Z,90.00
2022-11-16T08:44:56.949Z,89.75
2022-11-16T08:48:03.959Z,93.70
2022-11-16T08:51:18.886Z,88.82
2022-11-16T08:54:23.845Z,90.85
2022-11-16T08:57:26.691Z,91.45
2022-11-16T09:00:29.745Z,95.50
2022-11-16T09:03:32.456Z,96.25
2022-11-16T09:06:35.808Z,89.37
2022-11-16T09:12:41.741Z,90.22
2022-11-16T09:15:44.987Z,81.72
2022-11-16T09:18:51.428Z,86.78
2022-11-16T09:21:54.340Z,87.10
2022-11-16T09:24:57.091Z,88.90
2022-11-16T09:28:00.066Z,87.72
2022-11-16T09:31:04.481Z,86.82
2022-11-16T09:34:07.770Z,84.45
2022-11-16T09:37:10.799Z,87.62
2022-11-16T09:40:13.611Z,83.78
2022-11-16T09:43:36.602Z,88.65
2022-11-16T09:46:52.066Z,86.82
2022-11-16T09:53:14.769Z,85.62
2022-11-16T09:56:25.928Z,84.30
2022-11-16T09:59:37.046Z,79.87
2022-11-16T10:02:48.531Z,78.20
2022-11-16T10:06:05.418Z,83.87
2022-11-16T10:09:12.494Z,83.43
2022-11-16T10:12:35.424Z,80.28
2022-11-16T10:16:02.604Z,75.32
2022-11-16T10:19:14.758Z,84.40
2022-11-16T10:22:27.593Z,79.97
2022-11-16T10:29:07.674Z,80.18
2022-11-16T10:32:22.216Z,76.05
2022-11-16T10:35:35.301Z,73.93
2022-11-16T10:38:39.300Z,72.80
2022-11-16T10:41:51.807Z,73.15
2022-11-16T10:45:13.279Z,73.20
2022-11-16T10:48:39.718Z,72.00
2022-11-16T10:51:43.460Z,72.00
2022-11-16T10:54:46.041Z,72.47
2022-11-16T10:58:06.544Z,72.00
2022-11-16T11:01:13.167Z,67.62
2022-11-16T11:04:16.318Z,69.40
2022-11-16T11:07:24.641Z,79.45
2022-11-16T11:10:31.492Z,69.95
2022-11-16T11:13:35.057Z,64.68
2022-11-16T11:16:39.203Z,70.80
2022-11-16T11:19:41.741Z,63.42
2022-11-16T11:23:02.503Z,69.97
2022-11-16T11:26:05.316Z,68.20
2022-11-16T11:32:24.099Z,62.03
2022-11-16T11:35:32.971Z,58.08
2022-11-16T11:38:57.499Z,65.10
2022-11-16T11:42:22.023Z,60.33
2022-11-16T11:45:42.539Z,64.28
2022-11-16T11:49:00.074Z,64.43
2022-11-16T11:52:14.463Z,63.25
2022-11-16T11:55:19.899Z,67.57
2022-11-16T11:58:31.329Z,66.53
2022-11-16T12:01:49.776Z,61.70
2022-11-16T12:05:10.235Z,63.87
2022-11-16T12:08:40.130Z,67.78
2022-11-16T12:12:20.467Z,64.00
2022-11-16T12:15:57.541Z,64.05
2022-11-16T12:19:03.272Z,66.68
2022-11-16T12:22:37.081Z,67.68
2022-11-16T12:29:27.488Z,61.75
2022-11-16T12:32:58.223Z,65.53
2022-11-16T12:36:22.565Z,65.15
2022-11-16T12:39:31.379Z,57.00
2022-11-16T12:43:00.028Z,59.20
2022-11-16T12:46:06.729Z,57.83
2022-11-16T12:49:31.210Z,57.45
2022-11-16T12:52:58.854Z,59.72
2022-11-16T12:56:20.473Z,59.00
2022-11-16T12:59:26.587Z,58.97
2022-11-16T13:03:00.169Z,59.20
2022-11-16T13:06:09.534Z,61.70
2022-11-16T13:09:24.389Z,55.67
2022-11-16T13:12:30.799Z,57.62
2022-11-16T13:15:37.592Z,55.72
2022-11-16T13:18:42.909Z,55.00
2022-11-16T13:21:50.477Z,51.35
2022-11-16T13:25:01.501Z,53.22
2022-11-16T13:28:20.434Z,65.25
2022-11-16T13:31:44.034Z,58.22
2022-11-16T13:34:47.878Z,55.85
2022-11-16T13:37:52.410Z,52.65
2022-11-16T13:41:47.193Z,52.85
2022-11-16T13:44:51.732Z,53.77
2022-11-16T13:47:57.974Z,50.38
2022-11-16T13:51:04.095Z,44.60
2022-11-16T13:57:52.435Z,46.88
2022-11-16T14:01:00.693Z,46.03
2022-11-16T14:04:41.841Z,43.22
2022-11-16T14:07:49.483Z,46.33
2022-11-16T14:10:52.277Z,47.22
2022-11-16T14:13:55.388Z,45.33
2022-11-16T14:16:58.295Z,46.25
2022-11-16T14:20:01.296Z,43.90
2022-11-16T14:23:04.150Z,43.97
2022-11-16T14:26:27.418Z,40.58
2022-11-16T14:30:05.326Z,39.30
2022-11-16T14:33:28.197Z,40.63
2022-11-16T14:36:42.131Z,38.07
2022-11-16T14:39:45.380Z,37.03
2022-11-16T14:43:16.940Z,32.72
2022-11-16T14:46:26.339Z,36.47
2022-11-16T14:49:33.259Z,33.30
2022-11-16T14:52:49.145Z,33.78
2022-11-16T14:55:52.058Z,34.40
2022-11-16T14:58:59.930Z,34.35
2022-11-16T15:02:16.753Z,35.03
2022-11-16T15:05:27.526Z,35.50
2022-11-16T15:08:42.354Z,33.60
2022-11-16T15:12:07.987Z,34.65
2022-11-16T15:15:10.693Z,34.42
2022-11-16T15:18:18.062Z,38.55
2022-11-16T15:21:22.744Z,36.13
2022-11-16T15:24:31.408Z,39.33
2022-11-16T15:27:40.752Z,35.45
2022-11-16T15:30:48.784Z,47.92
2022-11-16T15:33:52.392Z,44.05
2022-11-16T15:36:55.371Z,36.75
2022-11-16T15:40:00.196Z,40.65
2022-11-16T15:43:05.964Z,36.55
2022-11-16T15:46:09.159Z,35.63
2022-11-16T15:49:35.497Z,37.83
2022-11-16T15:52:55.191Z,41.22
2022-11-16T15:55:58.049Z,34.75
2022-11-16T15:59:09.627Z,35.97
2022-11-16T16:02:20.497Z,40.50
2022-11-16T16:05:40.945Z,37.50
2022-11-16T16:08:45.172Z,36.58
2022-11-16T16:11:48.552Z,40.10
2022-11-16T16:15:24.623Z,37.15
2022-11-16T16:18:40.585Z,34.25
2022-11-16T16:21:45.798Z,32.97
2022-11-16T16:24:48.641Z,36.05
2022-11-16T16:27:51.512Z,38.35
2022-11-16T16:30:54.302Z,31.40
2022-11-16T16:33:57.155Z,31.23
2022-11-16T16:36:59.922Z,30.92
2022-11-16T16:40:03.308Z,32.88
2022-11-16T16:46:11.646Z,33.00
2022-11-16T16:49:14.529Z,36.83
2022-11-16T16:52:17.965Z,35.72
2022-11-16T16:55:21.928Z,36.83
2022-11-16T16:58:24.751Z,35.25
2022-11-16T17:01:28.193Z,34.95
2022-11-16T17:04:32.785Z,35.75
2022-11-16T17:07:35.660Z,36.53
2022-11-16T17:10:39.363Z,34.08
2022-11-16T17:13:42.186Z,36.88
2022-11-16T17:16:45.045Z,34.35
2022-11-16T17:19:47.872Z,35.25
2022-11-16T17:22:56.317Z,32.92
2022-11-16T17:25:59.179Z,35.20
2022-11-16T17:29:01.957Z,37.05
2022-11-16T17:32:05.079Z,34.78
2022-11-16T17:35:08.303Z,32.97
2022-11-16T17:41:18.573Z,30.90
2022-11-16T17:44:22.078Z,28.70
2022-11-16T17:47:25.168Z,31.02
2022-11-16T17:50:28.034Z,30.15
2022-11-16T17:53:32.952Z,28.58
2022-11-16T17:56:36.145Z,27.60
2022-11-16T17:59:38.937Z,28.67
2022-11-16T18:02:41.725Z,25.73
2022-11-16T18:05:44.835Z,31.20
2022-11-16T18:08:48.284Z,28.77
2022-11-16T18:11:51.645Z,27.37
2022-11-16T18:15:21.248Z,28.90
2022-11-16T18:18:17.312Z,30.67
2022-11-16T18:21:20.953Z,30.67
2022-11-16T18:24:24.314Z,37.35
2022-11-16T18:27:26.924Z,36.47
2022-11-16T18:30:30.769Z,32.97
2022-11-16T18:36:43.485Z,26.90
2022-11-16T18:39:46.614Z,27.40
2022-11-16T18:42:53.041Z,27.60
2022-11-16T18:45:55.870Z,27.17
2022-11-16T18:49:00.090Z,29.42
2022-11-16T18:52:02.699Z,32.08
2022-11-16T18:55:06.278Z,25.83
2022-11-16T18:58:22.726Z,24.92
2022-11-16T19:01:31.916Z,23.60
2022-11-16T19:04:34.555Z,24.12
2022-11-16T19:07:37.879Z,37.55
2022-11-16T19:10:40.579Z,47.75
2022-11-16T19:13:44.654Z,24.92
2022-11-16T19:16:54.160Z,26.58
2022-11-16T19:20:02.449Z,22.87
2022-11-16T19:23:05.132Z,19.62
2022-11-16T19:26:09.964Z,18.67
2022-11-16T19:29:12.539Z,17.33
2022-11-16T19:35:18.488Z,16.37
2022-11-16T19:38:21.571Z,15.85
2022-11-16T19:41:25.524Z,16.80
2022-11-16T19:44:28.633Z,16.12
2022-11-16T19:47:31.278Z,14.93
2022-11-16T19:53:39.276Z,16.33
2022-11-16T19:56:43.450Z,20.10
2022-11-16T19:59:47.754Z,22.40
2022-11-16T20:02:56.111Z,21.12
2022-11-16T20:06:11.453Z,27.67
2022-11-16T20:09:14.589Z,20.15
2022-11-16T20:12:17.443Z,24.23
2022-11-16T20:15:23.506Z,19.12
2022-11-16T20:18:28.644Z,18.95
2022-11-16T20:21:40.509Z,17.90
2022-11-16T20:24:43.321Z,19.50
2022-11-16T20:27:46.634Z,19.55
2022-11-16T20:30:49.615Z,35.55
2022-11-16T20:33:57.676Z,24.98
2022-11-16T20:37:00.514Z,18.15
2022-11-16T20:40:04.104Z,17.45
2022-11-16T20:46:19.641Z,17.52
2022-11-16T20:49:23.978Z,18.30
2022-11-16T20:52:26.842Z,17.85
2022-11-16T20:55:29.815Z,18.52
2022-11-16T20:58:33.584Z,20.30
2022-11-16T21:01:36.854Z,17.90
2022-11-16T21:04:41.270Z,19.65
2022-11-16T21:07:44.493Z,20.02
2022-11-16T21:10:48.709Z,19.15
2022-11-16T21:14:11.041Z,19.02
2022-11-16T21:17:14.038Z,19.15
2022-11-16T21:20:27.465Z,19.10
2022-11-16T21:23:33.546Z,21.73
2022-11-16T21:26:39.892Z,19.98
2022-11-16T21:29:45.105Z,20.40
2022-11-16T21:32:47.991Z,19.73
2022-11-16T21:35:52.794Z,22.05
2022-11-16T21:38:55.818Z,18.75
2022-11-16T21:41:58.584Z,18.65
2022-11-16T21:45:01.408Z,17.95
2022-11-16T21:48:04.480Z,19.80
2022-11-16T21:51:10.648Z,17.55
2022-11-16T21:54:13.877Z,17.98
2022-11-16T21:57:18.273Z,18.77
2022-11-16T22:00:21.195Z,21.77
2022-11-16T22:03:25.941Z,22.85
2022-11-16T22:06:47.448Z,23.48
2022-11-16T22:09:50.256Z,27.20
2022-11-16T22:12:53.125Z,27.02
2022-11-16T22:15:56.004Z,28.62
2022-11-16T22:18:58.812Z,30.08
2022-11-16T22:22:01.549Z,30.08
2022-11-16T22:25:04.719Z,30.17
2022-11-16T22:28:20.578Z,31.98
2022-11-16T22:31:24.642Z,34.55
2022-11-16T22:34:27.655Z,32.00
2022-11-16T22:37:30.505Z,32.65
2022-11-16T22:40:33.371Z,30.73
2022-11-16T22:43:37.393Z,29.75
2022-11-16T22:46:40.678Z,32.25
2022-11-16T22:49:43.665Z,32.83
2022-11-16T22:52:46.460Z,27.48
2022-11-16T22:55:49.392Z,28.73
2022-11-16T22:58:52.874Z,30.48
2022-11-16T23:01:55.696Z,30.83
2022-11-16T23:04:58.629Z,30.88
2022-11-16T23:08:01.542Z,30.62
2022-11-16T23:11:29.414Z,30.40
2022-11-16T23:14:50.870Z,28.87
2022-11-16T23:17:53.694Z,32.92
2022-11-16T23:21:17.779Z,32.03
2022-11-16T23:24:39.369Z,32.20
2022-11-16T23:27:51.382Z,28.98
2022-11-16T23:30:54.290Z,30.15
2022-11-16T23:33:57.097Z,31.15
2022-11-16T23:37:03.903Z,29.92
2022-11-16T23:40:07.214Z,29.45
2022-11-16T23:43:31.203Z,29.87
2022-11-16T23:46:34.168Z,33.13
2022-11-16T23:49:36.903Z,27.98
2022-11-16T23:52:39.691Z,30.67
2022-11-16T23:55:42.407Z,27.67
2022-11-16T23:58:45.240Z,27.73
